createdAt,value
2018-05-16T03:14:09.366Z,13.31
2018-05-16T03:17:22.892Z,13.27
2018-05-16T03:18:01.964Z,13.27
2018-05-16T03:19:02.215Z,13.31
2018-05-16T03:20:01.614Z,13.19
2018-05-16T03:22:01.620Z,13.28
2018-05-16T03:23:00.769Z,13.13
2018-05-16T03:24:00.639Z,13.16
2018-05-16T03:24:58.696Z,13.15
2018-05-16T03:25:58.718Z,13.13
2018-05-16T03:26:58.855Z,13.22
2018-05-16T03:27:59.322Z,13.15
2018-05-16T03:28:59.283Z,13.20
2018-05-16T03:29:59.499Z,13.23
2018-05-16T03:30:59.755Z,13.28
2018-05-16T03:32:00.007Z,13.23
2018-05-16T03:33:00.063Z,13.27
2018-05-16T03:34:00.145Z,13.23
2018-05-16T03:35:00.498Z,13.18
2018-05-16T03:36:00.658Z,13.15
2018-05-16T03:37:00.803Z,13.19
2018-05-16T03:38:00.768Z,13.20
2018-05-16T03:39:01.382Z,13.27
2018-05-16T03:41:39.079Z,13.11
2018-05-16T03:42:43.631Z,13.16
2018-05-16T03:43:44.787Z,13.11
2018-05-16T03:44:44.863Z,13.20
2018-05-16T03:45:40.764Z,13.19
2018-05-16T03:46:43.172Z,13.23
2018-05-16T03:47:39.407Z,13.16
2018-05-16T03:48:39.690Z,13.19
2018-05-16T03:49:41.371Z,13.19
2018-05-16T03:50:38.908Z,13.15
2018-05-16T03:51:39.625Z,13.12
2018-05-16T03:52:40.010Z,13.09
2018-05-16T03:53:38.237Z,12.98
2018-05-16T03:54:39.942Z,13.05
2018-05-16T03:55:38.826Z,13.03
2018-05-16T04:38:01.459Z,13.01
2018-05-16T04:39:05.247Z,12.95
2018-05-16T08:32:23.889Z,22.50
2018-05-16T08:34:10.028Z,22.55
2018-05-16T08:34:33.619Z,22.88
2018-05-16T08:35:14.652Z,23.10
2018-05-16T08:36:12.658Z,23.21
2018-05-16T08:37:10.772Z,22.81
2018-05-16T08:38:11.231Z,22.76
2018-05-16T08:39:11.471Z,22.39
2018-05-16T08:40:25.092Z,21.93
2018-05-16T08:43:37.140Z,21.18
2018-05-16T08:44:20.402Z,20.99
2018-05-16T08:45:30.756Z,20.97
2018-05-16T08:46:24.819Z,21.15
2018-05-16T08:47:20.242Z,21.22
2018-05-16T08:48:20.354Z,20.96
2018-05-16T08:49:54.889Z,20.62
2018-05-16T08:52:08.464Z,19.99
2018-05-16T08:53:00.911Z,19.81
2018-05-16T08:54:00.830Z,19.85
2018-05-16T08:55:00.141Z,19.76
2018-05-16T08:56:12.300Z,19.85
2018-05-16T08:57:04.428Z,20.06
2018-05-16T08:58:14.243Z,20.19
2018-05-16T08:59:05.075Z,20.09
2018-05-16T09:02:23.930Z,19.84
2018-05-16T09:03:25.311Z,19.59
2018-05-16T09:05:27.591Z,19.84
2018-05-16T09:06:26.864Z,20.04
2018-05-16T09:07:25.446Z,20.22
2018-05-16T09:08:28.602Z,20.40
2018-05-16T09:09:24.925Z,20.50
2018-05-16T09:10:27.516Z,20.37
2018-05-16T09:11:27.487Z,20.31
2018-05-16T09:12:30.044Z,20.09
2018-05-16T09:13:25.948Z,19.92
2018-05-16T09:14:25.566Z,19.89
2018-05-16T09:15:25.014Z,19.85
2018-05-16T09:16:24.709Z,19.81
2018-05-16T09:17:26.072Z,20.00
2018-05-16T09:18:24.175Z,20.19
2018-05-16T09:19:24.368Z,20.41
2018-05-16T09:20:25.508Z,20.59
2018-05-16T09:21:25.829Z,20.88
2018-05-16T09:22:26.856Z,20.88
2018-05-16T09:23:25.074Z,21.03
2018-05-16T09:24:31.015Z,20.88
2018-05-16T09:25:25.756Z,20.74
2018-05-16T09:26:26.676Z,20.77
2018-05-16T09:28:01.622Z,20.96
2018-05-16T09:28:31.810Z,21.00
2018-05-16T09:29:30.216Z,21.00
2018-05-16T09:31:28.030Z,20.81
2018-05-16T09:38:23.890Z,21.82
2018-05-16T09:47:17.206Z,21.61
2018-05-16T09:49:20.951Z,21.21
2018-05-16T09:50:34.447Z,20.90
2018-05-16T09:54:03.238Z,20.74
2018-05-16T10:20:45.975Z,22.18
2018-05-16T10:22:31.739Z,21.82
2018-05-16T10:37:00.340Z,25.62
2018-05-16T10:38:07.980Z,25.63
2018-05-16T10:38:40.631Z,25.55
2018-05-16T10:49:34.568Z,25.44
2018-05-16T11:31:09.628Z,21.76
2018-05-16T12:35:25.174Z,23.10
2018-05-16T12:36:40.924Z,23.73
2018-05-16T12:37:25.486Z,24.20
2018-05-16T12:38:25.421Z,24.69
2018-05-16T12:40:35.237Z,25.14
2018-05-16T12:41:19.418Z,25.13
2018-05-16T12:42:20.562Z,25.11
2018-05-16T12:43:19.320Z,24.45
2018-05-16T12:44:19.416Z,23.76
2018-05-16T12:45:19.647Z,23.34
2018-05-16T12:46:19.893Z,22.98
2018-05-16T12:47:20.078Z,22.57
2018-05-16T12:48:20.256Z,22.38
2018-05-16T12:49:20.242Z,22.18
2018-05-16T12:50:20.501Z,21.99
2018-05-16T12:51:20.662Z,21.99
2018-05-16T12:52:21.568Z,21.95
2018-05-16T12:53:21.101Z,21.80
2018-05-16T12:54:21.465Z,21.88
2018-05-16T12:55:21.342Z,21.76
2018-05-16T12:56:21.540Z,21.70
2018-05-16T12:57:21.868Z,21.83
2018-05-16T12:58:22.140Z,21.73
2018-05-16T12:59:22.205Z,21.64
2018-05-16T13:00:22.394Z,21.72
2018-05-16T13:01:22.539Z,21.66
2018-05-16T13:02:22.749Z,21.73
2018-05-16T13:03:22.967Z,21.70
2018-05-16T13:04:23.147Z,21.82
2018-05-16T13:05:23.169Z,21.96
2018-05-16T13:06:23.472Z,22.54
2018-05-16T13:07:23.565Z,22.73
2018-05-16T13:08:23.795Z,23.20
2018-05-16T13:09:24.332Z,23.61
2018-05-16T13:10:24.207Z,23.51
2018-05-16T13:11:24.411Z,23.21
2018-05-16T13:12:25.358Z,23.58
2018-05-16T13:13:24.683Z,23.51
2018-05-16T13:14:25.039Z,23.37
2018-05-16T13:15:25.040Z,23.08
2018-05-16T13:16:25.278Z,22.75
2018-05-16T13:17:25.331Z,22.44
2018-05-16T13:18:25.565Z,21.79
2018-05-16T13:19:25.814Z,21.66
2018-05-16T13:20:25.924Z,21.50
2018-05-16T13:21:26.189Z,21.35
2018-05-16T13:22:26.458Z,21.27
2018-05-16T13:23:26.679Z,21.58
2018-05-16T13:24:26.972Z,21.66
2018-05-16T13:25:26.906Z,21.55
2018-05-16T13:26:27.042Z,21.60
2018-05-16T13:27:27.282Z,21.54
2018-05-16T13:28:27.574Z,21.66
2018-05-16T13:29:27.847Z,21.72
2018-05-16T13:30:27.848Z,21.82
2018-05-16T13:31:27.963Z,22.54
2018-05-16T13:32:28.184Z,23.54
2018-05-16T13:33:28.424Z,24.51
2018-05-16T13:34:28.531Z,25.25
2018-05-16T13:35:28.773Z,25.96
2018-05-16T13:36:28.997Z,26.59
2018-05-16T13:37:29.788Z,27.10
2018-05-16T13:38:29.171Z,27.36
2018-05-16T13:39:29.479Z,27.74
2018-05-16T13:40:29.529Z,27.67
2018-05-16T13:41:29.704Z,27.49
2018-05-16T13:42:29.862Z,27.26
2018-05-16T13:43:30.054Z,27.64
2018-05-16T13:44:30.176Z,27.82
2018-05-16T13:45:30.320Z,28.10
2018-05-16T13:46:30.557Z,28.22
2018-05-16T13:47:30.715Z,27.74
2018-05-16T13:48:30.848Z,27.05
2018-05-16T13:49:31.042Z,26.34
2018-05-16T13:50:31.311Z,25.75
2018-05-16T13:51:31.555Z,24.98
2018-05-16T13:52:31.682Z,24.33
2018-05-16T13:53:31.814Z,23.99
2018-05-16T13:54:32.007Z,23.69
2018-05-16T13:55:32.194Z,23.24
2018-05-16T13:56:32.379Z,22.84
2018-05-16T13:57:32.636Z,22.45
2018-05-16T13:58:32.892Z,22.11
2018-05-16T13:59:32.907Z,21.89
2018-05-16T14:00:33.138Z,21.64
2018-05-16T14:01:33.259Z,21.52
2018-05-16T14:02:33.556Z,21.57
2018-05-16T14:03:33.666Z,21.40
2018-05-16T14:04:33.807Z,21.36
2018-05-16T14:05:33.981Z,21.48
2018-05-16T14:06:34.473Z,22.00
2018-05-16T14:07:34.337Z,22.23
2018-05-16T14:08:34.560Z,22.07
2018-05-16T14:09:34.845Z,22.02
2018-05-16T14:10:34.944Z,21.96
2018-05-16T14:11:35.237Z,22.13
2018-05-16T14:12:35.311Z,22.36
2018-05-16T14:13:35.448Z,22.50
2018-05-16T14:14:35.727Z,22.60
2018-05-16T14:15:35.765Z,22.55
2018-05-16T14:16:36.053Z,22.69
2018-05-16T14:17:36.116Z,22.80
2018-05-16T14:18:36.269Z,22.96
2018-05-16T14:19:36.535Z,23.12
2018-05-16T14:20:36.810Z,23.13
2018-05-16T14:21:36.828Z,23.15
2018-05-16T14:22:37.082Z,23.08
2018-05-16T14:23:37.172Z,23.03
2018-05-16T14:24:37.393Z,22.94
2018-05-16T14:25:37.581Z,22.78
2018-05-16T14:26:37.738Z,22.84
2018-05-16T14:27:37.849Z,22.81
2018-05-16T14:28:37.994Z,22.93
2018-05-16T14:29:38.309Z,22.99
2018-05-16T14:30:38.403Z,23.15
2018-05-16T14:31:38.584Z,23.24
2018-05-16T14:32:38.750Z,23.09
2018-05-16T14:33:38.900Z,23.03
2018-05-16T14:34:39.042Z,23.03
2018-05-16T14:35:39.252Z,22.99
2018-05-16T14:36:39.386Z,22.90
2018-05-16T14:37:39.528Z,22.80
2018-05-16T14:38:39.704Z,22.76
2018-05-16T14:39:39.890Z,22.44
2018-05-16T14:40:40.102Z,22.17
2018-05-16T14:41:40.265Z,21.93
2018-05-16T14:42:40.494Z,21.64
2018-05-16T14:43:40.518Z,21.45
2018-05-16T14:44:40.698Z,21.25
2018-05-16T14:45:40.860Z,21.14
2018-05-16T14:46:41.100Z,21.02
2018-05-16T14:47:41.139Z,21.03
2018-05-16T14:48:41.374Z,21.00
2018-05-16T14:49:41.450Z,21.09
2018-05-16T14:50:41.669Z,21.18
2018-05-16T14:51:41.912Z,21.27
2018-05-16T14:52:42.030Z,21.58
2018-05-16T14:53:42.201Z,21.82
2018-05-16T14:54:42.413Z,22.15
2018-05-16T14:55:42.610Z,22.44
2018-05-16T14:56:42.765Z,22.63
2018-05-16T14:57:42.861Z,23.02
2018-05-16T14:58:43.087Z,23.50
2018-05-16T14:59:43.239Z,23.87
2018-05-16T15:00:43.432Z,24.29
2018-05-16T15:01:43.642Z,24.77
2018-05-16T15:02:43.731Z,24.80
2018-05-16T15:03:43.909Z,24.32
2018-05-16T15:04:44.190Z,23.95
2018-05-16T15:05:44.389Z,23.71
2018-05-16T15:06:44.511Z,23.46
2018-05-16T15:07:44.683Z,23.23
2018-05-16T15:08:44.849Z,22.75
2018-05-16T15:09:45.093Z,22.73
2018-05-16T15:10:45.130Z,22.93
2018-05-16T15:11:45.378Z,23.20
2018-05-16T15:12:45.588Z,23.59
2018-05-16T15:13:45.741Z,23.80
2018-05-16T15:14:45.863Z,24.02
2018-05-16T15:15:46.124Z,23.87
2018-05-16T15:16:46.259Z,23.69
2018-05-16T15:17:46.393Z,23.66
2018-05-16T15:18:46.554Z,23.71
2018-05-16T15:19:46.773Z,23.73
2018-05-16T15:20:46.908Z,23.73
2018-05-16T15:21:47.128Z,23.68
2018-05-16T15:22:47.282Z,23.25
2018-05-16T15:23:47.415Z,23.06
2018-05-16T15:24:47.601Z,23.12
2018-05-16T15:25:47.812Z,22.99
2018-05-16T15:26:47.947Z,22.84
2018-05-16T15:27:48.186Z,22.81
2018-05-16T15:28:48.341Z,22.84
2018-05-16T15:29:48.461Z,23.02
2018-05-16T15:30:48.692Z,23.24
2018-05-16T15:31:48.846Z,23.25
2018-05-16T15:32:49.056Z,23.12
2018-05-16T15:33:49.221Z,23.17
2018-05-16T15:34:49.339Z,23.18
2018-05-16T15:35:49.532Z,23.21
2018-05-16T15:36:49.769Z,23.32
2018-05-16T15:37:49.909Z,23.61
2018-05-16T15:38:50.034Z,23.59
2018-05-16T15:39:50.282Z,23.74
2018-05-16T15:40:50.427Z,23.69
2018-05-16T15:41:50.548Z,23.66
2018-05-16T15:42:50.806Z,23.73
2018-05-16T15:43:50.989Z,23.76
2018-05-16T15:44:51.053Z,23.80
2018-05-16T15:45:51.356Z,23.87
2018-05-16T15:46:51.485Z,23.84
2018-05-16T15:47:51.607Z,23.77
2018-05-16T15:48:51.792Z,23.87
2018-05-16T15:49:52.029Z,23.93
2018-05-16T15:50:52.193Z,24.03
2018-05-16T15:51:52.385Z,23.87
2018-05-16T15:52:52.502Z,23.48
2018-05-16T15:53:52.711Z,23.36
2018-05-16T15:54:52.917Z,22.94
2018-05-16T15:55:53.076Z,22.76
2018-05-16T15:56:53.209Z,22.72
2018-05-16T15:57:53.361Z,22.50
2018-05-16T15:58:53.575Z,22.08
2018-05-16T15:59:53.688Z,22.02
2018-05-16T16:00:53.930Z,21.82
2018-05-16T16:01:54.105Z,21.92
2018-05-16T16:02:54.263Z,22.10
2018-05-16T16:03:54.437Z,22.10
2018-05-16T16:04:54.636Z,22.11
2018-05-16T16:05:54.778Z,22.06
2018-05-16T16:06:54.948Z,22.11
2018-05-16T16:07:55.190Z,22.17
2018-05-16T16:08:55.298Z,22.25
2018-05-16T16:09:55.469Z,22.43
2018-05-16T16:10:55.696Z,22.72
2018-05-16T16:11:55.846Z,22.83
2018-05-16T16:12:56.015Z,23.10
2018-05-16T16:13:56.194Z,23.23
2018-05-16T16:14:56.280Z,23.41
2018-05-16T16:15:56.454Z,23.50
2018-05-16T16:16:56.642Z,23.44
2018-05-16T16:17:57.815Z,23.65
2018-05-16T16:18:56.922Z,23.81
2018-05-16T16:19:57.143Z,23.83
2018-05-16T16:20:57.295Z,23.80
2018-05-16T16:21:57.519Z,23.68
2018-05-16T16:22:57.636Z,23.54
2018-05-16T16:23:57.832Z,23.24
2018-05-16T16:24:57.982Z,22.91
2018-05-16T16:25:58.188Z,22.60
2018-05-16T16:26:58.368Z,22.39
2018-05-16T16:27:58.536Z,22.08
2018-05-16T16:28:58.776Z,21.80
2018-05-16T16:29:58.907Z,21.92
2018-05-16T16:30:58.991Z,21.89
2018-05-16T16:31:59.101Z,21.89
2018-05-16T16:32:59.373Z,21.75
2018-05-16T16:33:59.488Z,21.77
2018-05-16T16:34:59.676Z,21.85
2018-05-16T16:35:59.887Z,21.69
2018-05-16T16:37:00.003Z,21.33
2018-05-16T16:38:00.153Z,21.35
2018-05-16T16:39:00.423Z,21.17
2018-05-16T16:40:00.491Z,20.99
2018-05-16T16:41:00.745Z,21.05
2018-05-16T16:42:00.848Z,21.00
2018-05-16T16:43:01.081Z,20.70
2018-05-16T16:44:01.190Z,20.90
2018-05-16T16:45:01.377Z,20.80
2018-05-16T16:46:01.518Z,20.85
2018-05-16T16:47:01.790Z,20.70
2018-05-16T16:48:01.866Z,20.81
2018-05-16T16:49:02.034Z,20.82
2018-05-16T16:50:02.211Z,20.85
2018-05-16T16:51:02.391Z,20.96
2018-05-16T16:52:02.623Z,20.95
2018-05-16T16:53:02.739Z,20.93
2018-05-16T16:54:02.876Z,20.77
2018-05-16T16:55:03.244Z,20.67
2018-05-16T16:56:03.211Z,20.70
2018-05-16T16:57:03.392Z,20.75
2018-05-16T16:58:03.518Z,20.56
2018-05-16T16:59:04.311Z,20.66
2018-05-16T17:00:04.253Z,20.50
2018-05-16T17:01:04.547Z,20.41
2018-05-16T17:02:04.494Z,20.39
2018-05-16T17:14:02.302Z,20.19
2018-05-16T17:15:02.290Z,20.29
2018-05-16T17:16:01.992Z,20.18
2018-05-16T17:17:01.977Z,20.14
2018-05-16T17:18:02.323Z,20.04
2018-05-16T17:19:02.340Z,20.09
2018-05-16T17:23:27.636Z,19.89
2018-05-16T17:24:28.236Z,19.91
2018-05-16T17:25:28.835Z,19.85
2018-05-16T17:26:26.379Z,19.70
2018-05-16T17:27:26.427Z,19.63
2018-05-16T17:28:26.345Z,19.51
2018-05-16T17:29:26.638Z,19.40
2018-05-16T17:30:26.805Z,19.30
2018-05-16T17:31:26.843Z,19.09
2018-05-16T17:32:27.082Z,19.14
2018-05-16T17:33:27.222Z,18.98
2018-05-16T17:34:27.428Z,18.99
2018-05-16T17:35:28.036Z,19.08
2018-05-16T17:36:27.816Z,19.14
2018-05-16T17:37:27.922Z,19.07
2018-05-16T17:38:28.137Z,19.00
2018-05-16T17:39:28.342Z,18.96
2018-05-16T17:40:28.474Z,18.99
2018-05-16T17:41:28.699Z,19.07
2018-05-16T17:42:28.909Z,18.86
2018-05-16T17:43:28.952Z,18.86
2018-05-16T17:44:29.185Z,18.84
2018-05-16T17:45:29.460Z,18.84
2018-05-16T17:46:29.515Z,18.80
2018-05-16T17:47:36.589Z,18.81
2018-05-16T17:48:29.941Z,18.73
2018-05-16T17:49:30.046Z,18.70
2018-05-16T17:50:30.223Z,18.74
2018-05-16T17:51:30.393Z,18.63
2018-05-16T17:52:30.476Z,18.62
2018-05-16T17:53:30.700Z,18.53
2018-05-16T17:54:30.915Z,18.50
2018-05-16T17:55:31.130Z,18.55
2018-05-16T17:56:31.248Z,18.56
2018-05-16T17:57:31.346Z,18.41
2018-05-16T17:58:31.536Z,18.50
2018-05-16T17:59:31.673Z,18.45
2018-05-16T18:00:31.809Z,18.35
2018-05-16T18:01:32.057Z,18.34
2018-05-16T18:02:32.193Z,18.37
2018-05-16T18:03:32.419Z,18.31
2018-05-16T18:04:32.604Z,18.22
2018-05-16T18:05:32.688Z,18.25
2018-05-16T18:06:32.886Z,18.23
2018-05-16T18:07:33.117Z,18.25
2018-05-16T18:08:33.286Z,18.18
2018-05-16T18:09:33.447Z,18.07
2018-05-16T18:10:33.577Z,18.15
2018-05-16T18:11:33.786Z,18.13
2018-05-16T18:12:33.931Z,18.08
2018-05-16T18:13:34.163Z,17.98
2018-05-16T18:14:34.321Z,17.90
2018-05-16T18:15:34.557Z,18.00
2018-05-16T18:16:34.641Z,17.94
2018-05-16T18:17:34.857Z,17.95
2018-05-16T18:18:35.042Z,17.86
2018-05-16T18:19:35.172Z,17.82
2018-05-16T18:20:35.277Z,17.85
2018-05-16T18:21:35.597Z,17.82
2018-05-16T18:22:35.610Z,17.89
2018-05-16T18:23:35.810Z,17.92
2018-05-16T18:24:36.013Z,17.78
2018-05-16T18:25:36.140Z,17.86
2018-05-16T18:26:36.264Z,17.76
2018-05-16T18:27:36.477Z,17.64
2018-05-16T18:28:36.660Z,17.68
2018-05-16T18:29:36.825Z,17.72
2018-05-16T18:30:36.986Z,17.60
2018-05-16T18:31:37.177Z,17.65
2018-05-16T18:32:37.292Z,17.68
2018-05-16T18:33:37.451Z,17.65
2018-05-16T18:34:37.908Z,17.65
2018-05-16T18:35:38.206Z,17.68
2018-05-16T18:36:38.157Z,17.71
2018-05-16T18:37:38.355Z,17.60
2018-05-16T18:38:38.593Z,17.70
2018-05-16T18:39:38.660Z,17.67
2018-05-16T18:40:38.789Z,17.72
2018-05-16T18:42:06.044Z,17.59
2018-05-16T18:42:39.248Z,17.60
2018-05-16T18:43:39.380Z,17.63
2018-05-16T18:44:39.453Z,17.45
2018-05-16T18:45:39.654Z,17.49
2018-05-16T18:46:39.843Z,17.52
2018-05-16T18:47:39.960Z,17.57
2018-05-16T18:48:40.268Z,17.52
2018-05-16T18:49:40.302Z,17.44
2018-05-16T18:50:40.423Z,17.51
2018-05-16T18:51:40.661Z,17.44
2018-05-16T18:52:40.781Z,17.48
2018-05-16T18:53:40.980Z,17.45
2018-05-16T18:54:41.158Z,17.42
2018-05-16T18:55:41.367Z,17.42
2018-05-16T18:56:41.417Z,17.38
2018-05-16T18:57:41.693Z,17.48
2018-05-16T18:58:41.778Z,17.44
2018-05-16T18:59:42.086Z,17.39
2018-05-16T19:00:42.161Z,17.48
2018-05-16T19:01:42.311Z,17.38
2018-05-16T19:02:42.407Z,17.38
2018-05-16T19:03:42.652Z,17.38
2018-05-16T19:04:42.762Z,17.42
2018-05-16T19:05:43.031Z,17.45
2018-05-16T19:06:43.271Z,17.48
2018-05-16T19:07:43.376Z,17.41
2018-05-16T19:08:43.667Z,17.45
2018-05-16T19:09:43.670Z,17.36
2018-05-16T19:10:44.002Z,17.39
2018-05-16T19:11:44.009Z,17.45
2018-05-16T19:12:44.272Z,17.44
2018-05-16T19:13:44.464Z,17.42
2018-05-16T19:14:44.780Z,17.38
2018-05-16T19:15:44.782Z,17.29
2018-05-16T19:16:45.025Z,17.29
2018-05-16T19:17:45.223Z,17.27
2018-05-16T19:18:45.349Z,17.23
2018-05-16T19:19:45.517Z,17.30
2018-05-16T19:20:45.638Z,17.26
2018-05-16T19:21:45.955Z,17.26
2018-05-16T19:22:46.124Z,17.22
2018-05-16T19:23:46.532Z,17.29
2018-05-16T19:24:46.541Z,17.29
2018-05-16T19:25:46.712Z,17.19
2018-05-16T19:26:47.062Z,17.16
2018-05-16T19:27:46.994Z,17.15
2018-05-16T19:28:47.198Z,17.15
2018-05-16T19:29:47.389Z,17.08
2018-05-16T19:30:47.605Z,17.19
2018-05-16T19:31:47.659Z,17.20
2018-05-16T19:32:47.828Z,17.11
2018-05-16T19:33:48.323Z,17.11
2018-05-16T19:34:48.700Z,17.09
2018-05-16T19:35:48.496Z,16.99
2018-05-16T19:36:48.822Z,16.94
2018-05-16T19:37:49.112Z,16.91
2018-05-16T19:38:49.136Z,16.89
2018-05-16T19:39:49.317Z,16.83
2018-05-16T19:40:49.252Z,16.74
2018-05-16T19:41:49.408Z,16.58
2018-05-16T19:42:49.717Z,16.51
2018-05-16T19:43:49.906Z,16.50
2018-05-16T19:44:50.433Z,16.42
2018-05-16T19:45:50.287Z,16.35
2018-05-16T19:46:51.045Z,16.26
2018-05-16T19:47:52.148Z,16.38
2018-05-16T19:48:50.926Z,16.32
2018-05-16T19:49:52.143Z,16.31
2018-05-16T19:50:51.437Z,16.32
2018-05-16T19:57:07.555Z,16.38
2018-05-16T20:00:26.916Z,16.41
2018-05-16T20:01:23.145Z,16.38
2018-05-16T20:03:16.935Z,16.28
2018-05-16T20:04:20.687Z,16.28
2018-05-16T20:11:55.790Z,16.24
2018-05-16T20:12:30.405Z,16.23
2018-05-16T20:13:50.795Z,16.15
2018-05-16T20:14:31.241Z,16.12
2018-05-16T20:15:30.800Z,16.01
2018-05-16T20:16:30.273Z,16.04
2018-05-16T20:17:35.265Z,16.00
2018-05-16T20:18:30.483Z,16.02
2018-05-16T20:19:30.514Z,15.98
2018-05-16T20:20:30.258Z,15.94
2018-05-16T20:21:28.190Z,15.94
2018-05-16T20:22:28.448Z,15.91
2018-05-16T20:23:28.664Z,16.00
2018-05-16T20:24:28.606Z,16.02
2018-05-16T20:25:28.663Z,15.98
2018-05-16T20:26:28.837Z,16.08
2018-05-16T20:27:28.956Z,16.01
2018-05-16T20:28:29.751Z,16.09
2018-05-16T20:29:29.799Z,16.02
2018-05-16T20:30:29.993Z,15.98
2018-05-16T20:31:29.921Z,16.10
2018-05-16T20:32:30.180Z,16.13
2018-05-16T20:33:30.346Z,16.20
2018-05-16T20:34:30.642Z,16.28
2018-05-16T20:35:30.555Z,16.21
2018-05-16T20:36:30.863Z,16.23
2018-05-16T20:37:30.951Z,16.26
2018-05-16T20:38:31.312Z,16.24
2018-05-16T20:39:31.305Z,16.23
2018-05-16T20:40:31.689Z,16.21
2018-05-16T20:41:32.012Z,16.20
2018-05-16T20:42:31.819Z,16.17
2018-05-16T20:43:32.270Z,16.21
2018-05-16T20:45:32.427Z,16.21
2018-05-16T20:46:33.299Z,16.13
2018-05-16T20:47:32.876Z,16.13
2018-05-16T20:48:33.159Z,16.13
2018-05-16T20:49:33.096Z,16.05
2018-05-16T20:50:33.419Z,16.05
2018-05-16T20:51:33.479Z,16.05
2018-05-16T20:52:33.727Z,16.02
2018-05-16T20:53:33.917Z,16.05
2018-05-16T20:54:34.124Z,15.98
2018-05-16T20:55:34.187Z,16.04
2018-05-16T20:56:34.383Z,15.97
2018-05-16T20:57:34.504Z,16.02
2018-05-16T20:58:34.676Z,15.97
2018-05-16T20:59:35.011Z,15.95
2018-05-16T21:00:35.154Z,16.01
2018-05-16T21:01:35.468Z,16.00
2018-05-16T21:02:35.629Z,15.94
2018-05-16T21:03:35.424Z,15.94
2018-05-16T21:04:35.556Z,15.94
2018-05-16T21:05:35.775Z,15.94
2018-05-16T21:06:35.869Z,15.90
2018-05-16T21:07:36.072Z,15.80
2018-05-16T21:08:36.259Z,15.80
2018-05-16T21:09:36.342Z,15.73
2018-05-16T21:10:36.520Z,15.76
2018-05-16T21:11:36.815Z,15.72
2018-05-16T21:12:37.146Z,15.72
2018-05-16T21:13:37.330Z,15.77
2018-05-16T21:14:38.058Z,15.70
2018-05-16T21:15:37.663Z,15.68
2018-05-16T21:16:37.776Z,15.68
2018-05-16T21:17:37.794Z,15.68
2018-05-16T21:18:38.225Z,15.72
2018-05-16T21:19:38.116Z,15.76
2018-05-16T21:20:38.241Z,15.75
2018-05-16T21:21:39.317Z,15.77
2018-05-16T21:22:38.533Z,15.75
2018-05-16T21:23:38.802Z,15.76
2018-05-16T21:24:38.775Z,15.77
2018-05-16T21:25:39.176Z,15.76
2018-05-16T21:26:39.371Z,15.75
2018-05-16T21:27:39.702Z,15.79
2018-05-16T21:28:39.607Z,15.70
2018-05-16T21:29:39.713Z,15.75
2018-05-16T21:30:40.052Z,15.75
2018-05-16T21:31:40.098Z,15.77
2018-05-16T21:32:40.286Z,15.79
2018-05-16T21:33:40.437Z,15.84
2018-05-16T21:34:40.555Z,15.75
2018-05-16T21:35:40.897Z,15.82
2018-05-16T21:36:40.990Z,15.80
2018-05-16T21:37:41.104Z,15.91
2018-05-16T21:38:41.303Z,15.84
2018-05-16T21:39:41.441Z,15.90
2018-05-16T21:40:41.670Z,15.90
2018-05-16T21:41:41.877Z,15.88
2018-05-16T21:42:42.026Z,15.83
2018-05-16T21:43:42.241Z,15.83
2018-05-16T21:44:42.378Z,15.75
2018-05-16T21:45:42.692Z,15.75
2018-05-16T21:46:42.730Z,15.79
2018-05-16T21:47:43.009Z,15.72
2018-05-16T21:48:43.000Z,15.76
2018-05-16T21:49:43.222Z,15.77
